createdAt,value
2022-08-07T00:02:40.681Z,13.86
2022-08-07T00:07:44.897Z,13.80
2022-08-07T00:13:00.023Z,13.77
2022-08-07T00:18:05.353Z,13.80
2022-08-07T00:23:09.171Z,13.75
2022-08-07T00:28:12.582Z,13.68
2022-08-07T00:33:18.970Z,13.57
2022-08-07T00:38:31.375Z,13.48
2022-08-07T00:44:00.888Z,13.44
2022-08-07T00:49:02.307Z,13.41
2022-08-07T00:54:06.414Z,13.29
2022-08-07T00:59:10.160Z,13.23
2022-08-07T01:04:24.655Z,13.28
2022-08-07T01:10:04.433Z,13.40
2022-08-07T01:14:56.970Z,13.42
2022-08-07T01:20:16.697Z,13.32
2022-08-07T01:25:54.559Z,13.17
2022-08-07T01:30:46.660Z,13.03
2022-08-07T01:35:53.844Z,12.91
2022-08-07T01:41:02.539Z,12.85
2022-08-07T01:46:08.340Z,12.84
2022-08-07T01:52:02.363Z,12.87
2022-08-07T01:56:53.406Z,12.95
2022-08-07T02:02:10.366Z,13.02
2022-08-07T02:07:17.316Z,13.04
2022-08-07T02:12:31.026Z,12.98
2022-08-07T02:17:37.812Z,12.83
2022-08-07T02:22:45.321Z,12.76
2022-08-07T02:27:51.966Z,12.69
2022-08-07T02:33:01.070Z,12.62
2022-08-07T02:38:16.044Z,12.52
2022-08-07T02:43:20.720Z,12.52
2022-08-07T02:48:26.046Z,12.61
2022-08-07T02:53:39.084Z,12.64
2022-08-07T02:58:47.209Z,12.53
2022-08-07T03:03:53.351Z,12.46
2022-08-07T03:09:01.105Z,12.43
2022-08-07T03:14:06.370Z,12.44
2022-08-07T03:19:11.129Z,12.45
2022-08-07T03:24:25.824Z,12.45
2022-08-07T03:29:46.254Z,12.56
2022-08-07T03:35:16.874Z,12.58
2022-08-07T03:40:30.898Z,12.61
2022-08-07T03:45:43.742Z,12.63
2022-08-07T03:50:57.755Z,12.64
2022-08-07T03:56:04.014Z,12.65
2022-08-07T04:01:11.658Z,12.69
2022-08-07T04:06:37.326Z,12.76
2022-08-07T04:12:26.678Z,12.91
2022-08-07T04:17:05.213Z,13.02
2022-08-07T04:22:29.659Z,13.12
2022-08-07T04:27:43.858Z,13.22
2022-08-07T04:32:58.471Z,13.31
2022-08-07T04:38:07.898Z,13.40
2022-08-07T04:43:12.821Z,13.46
2022-08-07T04:48:44.554Z,13.57
2022-08-07T04:54:08.600Z,13.63
2022-08-07T05:00:09.455Z,13.74
2022-08-07T05:05:53.631Z,13.78
2022-08-07T05:10:47.813Z,13.77
2022-08-07T05:15:54.501Z,13.82
2022-08-07T05:21:04.033Z,13.82
2022-08-07T05:26:24.224Z,13.94
2022-08-07T05:31:34.837Z,14.22
2022-08-07T05:36:52.887Z,14.43
2022-08-07T05:42:02.533Z,14.52
2022-08-07T05:47:18.272Z,14.62
2022-08-07T05:52:32.210Z,14.73
2022-08-07T05:57:42.298Z,14.91
2022-08-07T06:02:50.647Z,15.12
2022-08-07T06:08:09.084Z,15.34
2022-08-07T06:14:10.873Z,15.61
2022-08-07T06:18:51.806Z,15.86
2022-08-07T06:24:38.565Z,16.06
2022-08-07T06:29:32.025Z,16.28
2022-08-07T06:34:35.493Z,16.52
2022-08-07T06:40:16.977Z,16.75
2022-08-07T06:45:12.104Z,17.03
2022-08-07T06:50:21.885Z,17.28
2022-08-07T06:56:00.154Z,17.50
2022-08-07T07:00:58.315Z,17.71
2022-08-07T07:06:02.959Z,17.90
2022-08-07T07:11:14.467Z,18.09
2022-08-07T07:16:50.619Z,18.15
2022-08-07T07:22:05.328Z,18.29
2022-08-07T07:27:25.233Z,18.52
2022-08-07T07:32:42.702Z,18.74
2022-08-07T07:38:02.226Z,18.84
2022-08-07T07:43:15.049Z,19.11
2022-08-07T07:48:35.750Z,19.48
2022-08-07T07:53:51.683Z,19.81
2022-08-07T07:58:58.471Z,19.86
2022-08-07T08:04:11.572Z,19.94
2022-08-07T08:09:22.700Z,20.08
2022-08-07T08:14:26.763Z,20.38
2022-08-07T08:20:17.470Z,20.38
2022-08-07T08:25:26.930Z,20.59
2022-08-07T08:30:51.057Z,20.98
2022-08-07T08:36:00.602Z,20.66
2022-08-07T08:41:14.769Z,20.40
2022-08-07T08:46:44.980Z,20.81
2022-08-07T08:52:30.400Z,21.07
2022-08-07T08:57:50.819Z,21.38
2022-08-07T09:03:14.921Z,21.62
2022-08-07T09:09:00.920Z,21.62
2022-08-07T09:14:27.528Z,21.62
2022-08-07T09:19:57.738Z,21.42
2022-08-07T09:25:17.359Z,21.43
2022-08-07T09:30:28.043Z,21.64
2022-08-07T09:36:02.816Z,21.88
2022-08-07T09:41:58.468Z,22.27
2022-08-07T09:48:02.486Z,22.50
2022-08-07T09:53:12.801Z,22.78
2022-08-07T09:58:38.747Z,22.95
2022-08-07T10:04:13.900Z,23.06
2022-08-07T10:10:00.640Z,23.19
2022-08-07T10:15:46.542Z,23.28
2022-08-07T10:21:19.588Z,23.34
2022-08-07T10:26:51.847Z,23.30
2022-08-07T10:32:37.056Z,23.19
2022-08-07T10:38:21.170Z,22.78
2022-08-07T10:44:14.080Z,22.61
2022-08-07T10:49:51.015Z,23.18
2022-08-07T10:55:38.525Z,23.97
2022-08-07T11:01:12.284Z,23.94
2022-08-07T11:06:35.019Z,23.79
2022-08-07T11:11:52.175Z,24.02
2022-08-07T11:17:23.165Z,23.87
2022-08-07T11:23:09.239Z,24.00
2022-08-07T11:28:33.432Z,24.26
2022-08-07T11:33:59.651Z,24.29
2022-08-07T11:39:04.101Z,24.38
2022-08-07T11:44:27.397Z,24.46
2022-08-07T11:50:31.734Z,24.56
2022-08-07T11:56:27.344Z,24.33
2022-08-07T12:02:00.678Z,23.61
2022-08-07T12:07:27.927Z,23.42
2022-08-07T12:13:03.345Z,23.41
2022-08-07T12:18:36.567Z,23.65
2022-08-07T12:24:07.054Z,23.76
2022-08-07T12:29:57.079Z,23.75
2022-08-07T12:35:05.620Z,23.55
2022-08-07T12:40:44.043Z,23.46
2022-08-07T12:45:52.273Z,23.58
2022-08-07T12:51:24.492Z,23.63
2022-08-07T12:56:54.983Z,23.58
2022-08-07T13:02:51.283Z,23.49
2022-08-07T13:08:38.932Z,23.59
2022-08-07T13:13:54.297Z,23.71
2022-08-07T13:19:54.685Z,23.83
2022-08-07T13:25:10.076Z,23.86
2022-08-07T13:30:41.373Z,24.19
2022-08-07T13:36:00.705Z,24.70
2022-08-07T13:41:36.091Z,24.96
2022-08-07T13:46:49.390Z,24.76
2022-08-07T13:52:22.370Z,24.59
2022-08-07T13:57:26.683Z,24.52
2022-08-07T14:02:49.266Z,24.16
2022-08-07T14:08:00.501Z,24.12
2022-08-07T14:13:06.921Z,24.27
2022-08-07T14:18:33.256Z,24.49
2022-08-07T14:24:00.390Z,24.63
2022-08-07T14:30:02.846Z,24.18
2022-08-07T14:34:45.641Z,24.03
2022-08-07T14:40:16.418Z,23.99
2022-08-07T14:45:21.370Z,24.02
2022-08-07T14:50:29.072Z,24.01
2022-08-07T15:01:22.136Z,24.00
2022-08-07T15:06:32.278Z,24.06
2022-08-07T15:12:01.298Z,24.05
2022-08-07T15:17:16.739Z,23.92
2022-08-07T15:22:31.145Z,23.84
2022-08-07T15:28:32.094Z,23.70
2022-08-07T15:33:19.492Z,23.78
2022-08-07T15:38:33.126Z,23.97
2022-08-07T15:44:03.931Z,24.73
2022-08-07T15:54:42.337Z,24.95
2022-08-07T15:59:47.744Z,24.76
2022-08-07T16:04:59.097Z,24.18
2022-08-07T16:10:22.051Z,23.85
2022-08-07T16:15:55.578Z,24.42
2022-08-07T16:21:56.869Z,25.92
2022-08-07T16:26:59.528Z,27.05
2022-08-07T16:32:34.671Z,26.73
2022-08-07T16:38:17.952Z,25.47
2022-08-07T16:44:03.834Z,25.12
2022-08-07T16:50:20.583Z,26.01
2022-08-07T16:55:47.242Z,27.02
2022-08-07T17:01:15.849Z,27.72
2022-08-07T17:07:02.894Z,27.36
2022-08-07T17:12:35.053Z,26.72
2022-08-07T17:18:27.244Z,26.29
2022-08-07T17:23:59.799Z,25.04
2022-08-07T17:30:12.866Z,24.10
2022-08-07T17:35:33.199Z,24.48
2022-08-07T17:40:19.755Z,25.38
2022-08-07T17:45:43.097Z,24.84
2022-08-07T17:52:00.005Z,24.10
2022-08-07T17:57:19.128Z,23.49
2022-08-07T18:02:39.100Z,22.88
2022-08-07T18:08:03.529Z,22.32
2022-08-07T18:14:05.314Z,21.83
2022-08-07T18:21:07.145Z,21.38
2022-08-07T18:25:23.854Z,21.04
2022-08-07T18:30:56.170Z,20.72
2022-08-07T18:36:33.433Z,20.45
2022-08-07T18:42:04.015Z,20.23
2022-08-07T18:47:26.536Z,20.02
2022-08-07T18:53:39.154Z,19.87
2022-08-07T18:59:47.982Z,19.71
2022-08-07T19:05:15.794Z,19.55
2022-08-07T19:10:31.630Z,19.43
2022-08-07T19:16:04.931Z,19.24
2022-08-07T19:21:45.163Z,19.11
2022-08-07T19:27:16.683Z,19.00
2022-08-07T19:32:30.659Z,18.88
2022-08-07T19:37:56.331Z,18.79
2022-08-07T19:43:10.780Z,18.70
2022-08-07T19:48:19.106Z,18.58
2022-08-07T19:54:35.555Z,18.44
2022-08-07T19:58:54.322Z,18.34
2022-08-07T20:03:58.651Z,18.23
2022-08-07T20:09:03.552Z,18.16
2022-08-07T20:14:20.530Z,18.08
2022-08-07T20:19:48.025Z,17.96
2022-08-07T20:25:00.558Z,17.88
2022-08-07T20:30:11.155Z,17.80
2022-08-07T20:35:26.140Z,17.75
2022-08-07T20:40:38.108Z,17.74
2022-08-07T20:46:28.046Z,17.72
2022-08-07T20:51:15.213Z,17.68
2022-08-07T20:56:32.435Z,17.69
2022-08-07T21:01:54.747Z,17.70
2022-08-07T21:07:04.090Z,17.69
2022-08-07T21:12:28.604Z,17.68
2022-08-07T21:18:02.093Z,17.66
2022-08-07T21:23:15.410Z,17.68
2022-08-07T21:28:48.479Z,17.69
2022-08-07T21:34:18.276Z,17.68
2022-08-07T21:39:46.809Z,17.67
2022-08-07T21:46:03.207Z,17.63
2022-08-07T21:50:41.724Z,17.64
2022-08-07T21:56:16.859Z,17.62
2022-08-07T22:02:10.281Z,17.58
2022-08-07T22:07:58.960Z,17.60
2022-08-07T22:13:00.208Z,17.54
2022-08-07T22:18:11.073Z,17.50
2022-08-07T22:24:03.124Z,17.45
2022-08-07T22:29:37.709Z,17.40
2022-08-07T22:34:57.377Z,17.33
2022-08-07T22:40:11.445Z,17.30
2022-08-07T22:46:04.810Z,17.23
2022-08-07T22:51:52.307Z,17.21
2022-08-07T22:57:37.446Z,17.18
2022-08-07T23:03:01.303Z,17.09
2022-08-07T23:08:42.052Z,17.04
2022-08-07T23:14:22.846Z,16.93
2022-08-07T23:20:14.944Z,16.86
2022-08-07T23:25:28.708Z,16.78
2022-08-07T23:31:07.079Z,16.70
2022-08-07T23:37:19.429Z,16.70
2022-08-07T23:43:07.744Z,16.61
2022-08-07T23:48:52.690Z,16.50
2022-08-07T23:54:08.405Z,16.46
